Esquina, Argentina
Current Conditions -  °F | °C
As of 12:00 PM on Sunday 21 Dec 2014 (Local Time) from SUSO Reporting Station
Drizzle Drizzle  
Wind Chill: 63°   Ceiling: 700
Heat Index: 63°   Visibility: 0.31mi
Dew Point: 61°   Wind: 23mph
Humidity: 94%   Direction: 210°SSW
Pressure: 29.68"   Gusts: 36mph
Location:  30.02°S, 59.53°W
Report Text: SUSO 211500Z 21020G31KT 0500 DZ OVC007 17/16 Q1005
Loading
Personal Weather Stations






























Interactive Weather Map New forecast layout! Learn more

10-Day Weather Forecast

Advertisements
Track Severe Weather on mobile